Time;durP1;ratioP1;P1;durP2;ratioP2;P2;SDS_P1;SDS_P2;PMS_P1;PMS_P2;Temp;Humidity;BMP_temperature;BMP_pressure;BME280_temperature;BME280_humidity;BME280_pressure;Samples;Min_cycle;Max_cycle;Signal;HPM_P1;HPM_P2
2024/02/13 00:00:55;;;;;;;35.10;12.30;;;4.10;99.90;;;;;;4182849;28;20549;-76
2024/02/13 00:02:57;;;;;;;38.27;13.63;;;4.10;99.90;;;;;;4182349;28;20473;-76
2024/02/13 00:04:58;;;;;;;35.40;12.13;;;4.10;99.90;;;;;;4183387;28;20471;-75
2024/02/13 00:07:00;;;;;;;25.50;11.10;;;4.10;99.90;;;;;;4189436;28;20514;-75
2024/02/13 00:09:01;;;;;;;32.20;12.17;;;4.20;99.90;;;;;;4186890;28;20270;-75
2024/02/13 00:11:06;;;;;;;34.00;12.70;;;4.20;99.90;;;;;;4184610;28;20475;-75
2024/02/13 00:13:08;;;;;;;33.90;12.20;;;4.20;99.90;;;;;;4189609;28;20236;-75
2024/02/13 00:15:14;;;;;;;35.63;14.50;;;4.20;99.90;;;;;;4187785;28;20438;-75
2024/02/13 00:17:17;;;;;;;32.43;12.23;;;4.20;99.90;;;;;;4189220;28;20466;-76
2024/02/13 00:19:19;;;;;;;30.10;12.30;;;4.20;99.90;;;;;;4185139;28;20510;-75
2024/02/13 00:21:21;;;;;;;34.27;12.50;;;4.30;99.90;;;;;;4186755;28;20490;-75
2024/02/13 00:23:22;;;;;;;35.47;12.93;;;4.20;99.90;;;;;;4182201;28;20869;-75
2024/02/13 00:25:25;;;;;;;32.83;12.93;;;4.30;99.90;;;;;;4188861;28;20493;-74
2024/02/13 00:27:32;;;;;;;28.40;11.30;;;4.20;99.90;;;;;;4189033;28;20496;-76
2024/02/13 00:29:33;;;;;;;35.33;12.73;;;4.20;99.90;;;;;;4185454;28;20509;-75
2024/02/13 00:31:36;;;;;;;30.80;11.83;;;4.20;99.90;;;;;;4186984;28;20985;-75
2024/02/13 00:33:38;;;;;;;40.83;14.67;;;4.20;99.90;;;;;;4185465;28;20241;-76
2024/02/13 00:35:40;;;;;;;49.03;13.77;;;4.20;99.90;;;;;;4185633;28;20477;-76
2024/02/13 00:37:41;;;;;;;38.07;14.03;;;4.20;99.90;;;;;;4185518;28;20546;-75
2024/02/13 00:39:44;;;;;;;35.40;13.20;;;4.20;99.90;;;;;;4185352;28;20462;-75
2024/02/13 00:41:46;;;;;;;36.47;13.73;;;4.20;99.90;;;;;;4184155;28;20517;-75
2024/02/13 00:43:49;;;;;;;34.47;13.33;;;4.20;99.90;;;;;;4186407;28;20884;-76
2024/02/13 00:45:52;;;;;;;36.10;13.53;;;4.20;99.90;;;;;;4189898;28;20485;-75
2024/02/13 00:47:55;;;;;;;43.13;14.90;;;4.30;99.90;;;;;;4184139;28;20488;-75
2024/02/13 00:49:57;;;;;;;41.97;14.17;;;4.30;99.90;;;;;;4182664;28;20556;-74
2024/02/13 00:51:58;;;;;;;44.90;15.13;;;4.30;99.90;;;;;;4185729;28;20512;-75
2024/02/13 00:54:00;;;;;;;37.87;13.70;;;4.30;99.90;;;;;;4184048;28;20460;-73
2024/02/13 00:56:02;;;;;;;43.67;16.00;;;4.30;99.90;;;;;;4189930;28;20458;-72
2024/02/13 00:58:04;;;;;;;40.53;15.20;;;4.40;99.90;;;;;;4187165;28;20532;-72
2024/02/13 01:00:09;;;;;;;37.87;13.77;;;4.40;99.90;;;;;;4181728;28;20537;-73
2024/02/13 01:02:11;;;;;;;43.57;16.00;;;4.50;99.90;;;;;;4179937;28;21182;-73
2024/02/13 01:04:14;;;;;;;38.30;15.00;;;4.50;99.90;;;;;;4185769;28;20497;-74
2024/02/13 01:06:16;;;;;;;42.53;15.97;;;4.50;99.90;;;;;;4185752;28;20455;-73
2024/02/13 01:08:23;;;;;;;39.17;15.50;;;4.60;99.90;;;;;;4187392;28;20510;-74
2024/02/13 01:10:25;;;;;;;39.80;15.63;;;4.60;99.90;;;;;;4183221;28;20277;-73
2024/02/13 01:12:27;;;;;;;38.87;15.13;;;4.60;99.90;;;;;;4185396;28;20558;-73
2024/02/13 01:14:29;;;;;;;34.07;14.20;;;4.70;99.90;;;;;;4182671;28;20458;-74
2024/02/13 01:16:30;;;;;;;30.93;13.83;;;4.70;99.90;;;;;;4181364;28;20550;-73
2024/02/13 01:18:32;;;;;;;35.93;14.07;;;4.70;99.90;;;;;;4184781;28;20791;-73
2024/02/13 01:20:35;;;;;;;34.10;14.63;;;4.70;99.90;;;;;;4181050;28;20241;-73
2024/02/13 01:22:37;;;;;;;35.67;13.80;;;4.80;99.90;;;;;;4187243;28;20500;-74
2024/02/13 01:24:39;;;;;;;38.30;15.03;;;4.80;99.90;;;;;;4187771;28;20491;-73
2024/02/13 01:26:42;;;;;;;39.70;15.20;;;4.80;99.90;;;;;;4183671;28;20860;-74
2024/02/13 01:28:43;;;;;;;34.57;13.93;;;4.80;99.90;;;;;;4184761;28;20451;-74
2024/02/13 01:30:45;;;;;;;30.70;14.10;;;4.80;99.90;;;;;;4185844;28;20461;-73
2024/02/13 01:32:48;;;;;;;33.63;14.20;;;4.80;99.90;;;;;;4185985;28;20295;-74
2024/02/13 01:34:50;;;;;;;31.97;14.03;;;4.80;99.90;;;;;;4186150;28;20458;-73
2024/02/13 01:36:53;;;;;;;36.30;14.37;;;4.90;99.90;;;;;;4184463;28;20481;-73
2024/02/13 01:38:57;;;;;;;35.40;14.27;;;4.90;99.90;;;;;;4184385;28;20539;-74
2024/02/13 01:40:59;;;;;;;33.43;14.20;;;4.80;99.90;;;;;;4183434;28;20487;-73
2024/02/13 01:43:02;;;;;;;31.50;12.90;;;4.90;99.90;;;;;;4182655;28;20490;-73
2024/02/13 01:45:05;;;;;;;31.93;13.23;;;4.90;99.90;;;;;;4184648;28;20539;-73
2024/02/13 01:47:07;;;;;;;29.27;12.73;;;4.90;99.90;;;;;;4183871;28;20511;-73
2024/02/13 01:49:09;;;;;;;31.50;12.87;;;4.90;99.90;;;;;;4184838;28;20447;-74
2024/02/13 01:51:12;;;;;;;29.57;13.37;;;4.90;99.90;;;;;;4184918;28;21049;-73
2024/02/13 01:53:17;;;;;;;29.00;11.73;;;4.90;99.90;;;;;;4185762;28;20482;-73
2024/02/13 01:55:23;;;;;;;31.93;12.17;;;4.90;99.90;;;;;;4184509;28;20451;-73
2024/02/13 01:57:26;;;;;;;25.70;11.93;;;4.90;99.90;;;;;;4186946;28;20826;-74
2024/02/13 01:59:28;;;;;;;32.63;12.00;;;4.90;99.90;;;;;;4183136;28;20459;-74
2024/02/13 02:01:30;;;;;;;23.40;11.37;;;4.90;99.90;;;;;;4182586;28;20901;-73
2024/02/13 02:03:34;;;;;;;25.60;11.10;;;4.90;99.90;;;;;;4185141;28;20482;-74
2024/02/13 02:05:36;;;;;;;23.73;11.83;;;4.90;99.90;;;;;;4186155;28;20461;-75
2024/02/13 02:07:40;;;;;;;28.60;11.40;;;4.90;99.90;;;;;;4184694;28;20493;-73
2024/02/13 02:09:44;;;;;;;27.87;11.40;;;4.90;99.90;;;;;;4184042;28;20467;-73
2024/02/13 02:11:47;;;;;;;24.33;11.67;;;4.90;99.90;;;;;;4181716;28;20490;-73
2024/02/13 02:13:49;;;;;;;25.30;10.97;;;4.90;99.90;;;;;;4186393;28;20467;-75
2024/02/13 02:15:51;;;;;;;27.27;11.30;;;4.90;99.90;;;;;;4182761;28;20510;-73
2024/02/13 02:17:53;;;;;;;24.27;11.03;;;4.90;99.90;;;;;;4185312;28;20474;-73
2024/02/13 02:19:56;;;;;;;27.60;10.83;;;4.90;99.90;;;;;;4185234;28;20463;-75
2024/02/13 02:21:58;;;;;;;23.27;10.07;;;4.90;99.90;;;;;;4186621;28;20571;-74
2024/02/13 02:23:59;;;;;;;21.60;10.00;;;4.80;99.90;;;;;;4183494;28;20521;-74
2024/02/13 02:26:03;;;;;;;25.03;10.70;;;4.90;99.90;;;;;;4182928;28;20467;-75
2024/02/13 02:28:05;;;;;;;23.50;9.87;;;4.80;99.90;;;;;;4184202;28;21044;-73
2024/02/13 02:30:08;;;;;;;24.43;10.43;;;4.80;99.90;;;;;;4188024;28;20909;-74
2024/02/13 02:32:10;;;;;;;21.70;10.37;;;4.80;99.90;;;;;;4186707;28;20502;-73
2024/02/13 02:34:14;;;;;;;22.27;10.60;;;4.80;99.90;;;;;;4187440;28;20538;-74
2024/02/13 02:36:16;;;;;;;19.43;9.20;;;4.80;99.90;;;;;;4188496;28;20493;-74
2024/02/13 02:38:18;;;;;;;21.33;10.20;;;4.80;99.90;;;;;;4183523;28;20480;-74
2024/02/13 02:40:20;;;;;;;23.43;9.63;;;4.80;99.90;;;;;;4187113;28;20530;-74
2024/02/13 02:42:24;;;;;;;21.60;9.50;;;4.80;99.90;;;;;;4189857;28;20481;-74
2024/02/13 02:44:26;;;;;;;18.20;8.97;;;4.90;99.90;;;;;;4195940;28;20452;-75
2024/02/13 02:46:28;;;;;;;21.40;9.63;;;4.80;99.90;;;;;;4185811;28;21089;-75
2024/02/13 02:48:28;;;;;;;22.67;9.30;;;4.80;99.90;;;;;;4187284;28;21113;-75
2024/02/13 02:50:30;;;;;;;23.03;9.73;;;4.80;99.90;;;;;;4186600;28;20488;-75
2024/02/13 02:52:32;;;;;;;21.53;9.53;;;4.80;99.90;;;;;;4188164;28;20237;-75
2024/02/13 02:54:36;;;;;;;20.23;9.90;;;4.80;99.90;;;;;;4186110;28;20463;-75
2024/02/13 02:56:39;;;;;;;21.77;9.50;;;4.80;99.90;;;;;;4184767;28;20558;-76
2024/02/13 02:58:42;;;;;;;28.17;9.90;;;4.70;99.90;;;;;;4186511;28;20466;-74
2024/02/13 03:00:44;;;;;;;20.17;8.70;;;4.70;99.90;;;;;;4183226;28;20812;-75
2024/02/13 03:02:46;;;;;;;19.93;9.53;;;4.60;99.90;;;;;;4183542;28;20467;-75
2024/02/13 03:04:49;;;;;;;21.33;10.60;;;4.60;99.90;;;;;;4183997;28;20452;-74
2024/02/13 03:06:51;;;;;;;23.70;9.90;;;4.60;99.90;;;;;;4186059;28;20965;-74
2024/02/13 03:08:53;;;;;;;19.07;9.07;;;4.50;99.90;;;;;;4188501;28;21015;-74
2024/02/13 03:10:55;;;;;;;18.63;9.17;;;4.50;99.90;;;;;;4184375;28;20490;-74
2024/02/13 03:12:58;;;;;;;18.63;8.90;;;4.50;99.90;;;;;;4185804;28;20534;-74
2024/02/13 03:15:01;;;;;;;20.10;9.63;;;4.50;99.90;;;;;;4186010;28;20443;-75
2024/02/13 03:17:06;;;;;;;22.10;8.87;;;4.40;99.90;;;;;;4185478;28;20444;-75
2024/02/13 03:19:08;;;;;;;19.10;9.03;;;4.40;99.90;;;;;;4185283;28;20456;-75
2024/02/13 03:21:11;;;;;;;18.20;8.50;;;4.40;99.90;;;;;;4185101;28;20482;-74
2024/02/13 03:23:13;;;;;;;18.33;8.93;;;4.40;99.90;;;;;;4186032;28;20872;-74
2024/02/13 03:25:14;;;;;;;16.70;8.27;;;4.30;99.90;;;;;;4188292;28;20474;-74
2024/02/13 03:27:16;;;;;;;22.00;9.43;;;4.30;99.90;;;;;;4188223;28;20467;-75
2024/02/13 03:29:18;;;;;;;20.57;8.77;;;4.30;99.90;;;;;;4185397;28;20211;-74
2024/02/13 03:31:20;;;;;;;17.67;8.50;;;4.30;99.90;;;;;;4188440;28;21072;-74
2024/02/13 03:33:23;;;;;;;18.93;9.00;;;4.20;99.90;;;;;;4192542;28;20495;-74
2024/02/13 03:35:24;;;;;;;20.30;8.70;;;4.20;99.90;;;;;;4187635;28;20488;-74
2024/02/13 03:37:26;;;;;;;17.30;8.47;;;4.20;99.90;;;;;;4187502;28;20506;-74
2024/02/13 03:39:27;;;;;;;15.67;8.40;;;4.20;99.90;;;;;;4187030;28;20498;-74
2024/02/13 03:41:29;;;;;;;18.00;7.57;;;4.20;99.90;;;;;;4185073;28;20874;-75
2024/02/13 03:43:31;;;;;;;15.73;8.10;;;4.10;99.90;;;;;;4186558;28;20207;-74
2024/02/13 03:45:33;;;;;;;16.83;7.70;;;4.10;99.90;;;;;;4187584;28;20451;-75
2024/02/13 03:47:36;;;;;;;15.67;8.60;;;4.00;99.90;;;;;;4187885;28;20512;-75
2024/02/13 03:49:38;;;;;;;18.83;8.40;;;4.00;99.90;;;;;;4183852;28;20455;-75
2024/02/13 03:51:41;;;;;;;15.37;7.97;;;4.00;99.90;;;;;;4185863;28;20510;-75
2024/02/13 03:53:43;;;;;;;18.17;8.30;;;3.90;99.90;;;;;;4188026;28;20453;-75
2024/02/13 03:55:45;;;;;;;20.13;9.00;;;3.90;99.90;;;;;;4187324;28;20445;-75
2024/02/13 03:57:47;;;;;;;17.10;7.73;;;3.90;99.90;;;;;;4187075;28;20450;-75
2024/02/13 03:59:49;;;;;;;16.10;8.20;;;3.80;99.90;;;;;;4187104;28;21466;-75
2024/02/13 04:01:52;;;;;;;20.70;8.23;;;3.80;99.90;;;;;;4184847;28;20497;-74
2024/02/13 04:03:55;;;;;;;17.17;8.30;;;3.80;99.90;;;;;;4188128;28;20473;-75
2024/02/13 04:05:57;;;;;;;14.93;7.47;;;3.80;99.90;;;;;;4183243;28;20459;-76
2024/02/13 04:07:59;;;;;;;15.60;7.63;;;3.70;99.90;;;;;;4186631;28;20593;-75
2024/02/13 04:10:00;;;;;;;16.33;8.10;;;3.70;99.90;;;;;;4185969;28;20477;-76
2024/02/13 04:12:02;;;;;;;15.23;7.63;;;3.70;99.90;;;;;;4185362;28;21015;-74
2024/02/13 04:14:04;;;;;;;18.70;9.07;;;3.70;99.90;;;;;;4185111;28;20228;-74
2024/02/13 04:16:07;;;;;;;21.30;8.27;;;3.70;99.90;;;;;;4185602;28;20495;-74
2024/02/13 04:18:09;;;;;;;25.53;8.57;;;3.60;99.90;;;;;;4183654;28;20448;-75
2024/02/13 04:20:13;;;;;;;18.13;7.80;;;3.60;99.90;;;;;;4184574;28;20549;-76
2024/02/13 04:22:15;;;;;;;17.67;8.53;;;3.60;99.90;;;;;;4186821;28;20534;-75
2024/02/13 04:24:17;;;;;;;16.37;7.73;;;3.60;99.90;;;;;;4184758;28;20457;-75
2024/02/13 04:26:19;;;;;;;16.23;7.97;;;3.50;99.90;;;;;;4187008;28;20452;-75
2024/02/13 04:28:21;;;;;;;17.33;8.80;;;3.50;99.90;;;;;;4181954;28;20569;-74
2024/02/13 04:30:23;;;;;;;16.47;8.43;;;3.50;99.90;;;;;;4182332;28;20465;-74
2024/02/13 04:32:26;;;;;;;22.47;9.90;;;3.50;99.90;;;;;;4187137;28;21000;-75
2024/02/13 04:34:28;;;;;;;20.90;9.13;;;3.40;99.90;;;;;;4180675;28;20463;-75
2024/02/13 04:36:32;;;;;;;19.57;8.97;;;3.40;99.90;;;;;;4185161;28;20468;-75
2024/02/13 04:38:34;;;;;;;18.60;8.60;;;3.40;99.90;;;;;;4199240;28;20877;-76
2024/02/13 04:40:36;;;;;;;36.17;11.37;;;3.30;99.90;;;;;;4183927;28;20540;-75
2024/02/13 04:42:39;;;;;;;22.47;11.20;;;3.30;99.90;;;;;;4184902;28;20490;-75
2024/02/13 04:44:43;;;;;;;30.30;11.77;;;3.30;99.90;;;;;;4182721;28;20500;-74
2024/02/13 04:46:44;;;;;;;26.63;11.23;;;3.30;99.90;;;;;;4185272;28;20521;-74
2024/02/13 04:48:46;;;;;;;26.17;10.93;;;3.20;99.90;;;;;;4181173;28;20490;-75
2024/02/13 04:50:48;;;;;;;26.67;11.73;;;3.20;99.90;;;;;;4181445;28;20464;-75
2024/02/13 04:52:52;;;;;;;34.10;12.23;;;3.20;99.90;;;;;;4182929;28;20457;-73
2024/02/13 04:54:54;;;;;;;31.87;12.43;;;3.20;99.90;;;;;;4185751;28;20456;-74
2024/02/13 04:56:56;;;;;;;24.80;11.07;;;3.20;99.90;;;;;;4182958;28;20866;-74
2024/02/13 04:58:58;;;;;;;25.43;11.10;;;3.10;99.90;;;;;;4182135;28;20462;-73
2024/02/13 05:01:04;;;;;;;25.33;11.03;;;3.10;99.90;;;;;;4184507;28;20484;-79
2024/02/13 05:03:16;;;;;;;29.70;12.40;;;3.10;99.90;;;;;;4186303;28;20540;-75
2024/02/13 05:07:37;;;;;;;24.07;11.20;;;3.00;99.90;;;;;;4184691;28;20522;-74
2024/02/13 05:09:40;;;;;;;26.67;11.90;;;3.00;99.90;;;;;;4187043;28;20494;-74
2024/02/13 05:11:42;;;;;;;23.60;10.90;;;3.00;99.90;;;;;;4185739;28;20245;-74
2024/02/13 05:13:44;;;;;;;24.17;11.40;;;3.00;99.90;;;;;;4183432;28;20460;-74
2024/02/13 05:15:46;;;;;;;24.10;10.30;;;3.00;99.90;;;;;;4184104;28;20448;-73
2024/02/13 05:17:49;;;;;;;26.67;10.70;;;2.90;99.90;;;;;;4185304;28;20436;-74
2024/02/13 05:19:51;;;;;;;24.87;11.43;;;3.00;99.90;;;;;;4181581;28;20538;-74
2024/02/13 05:21:52;;;;;;;30.07;11.77;;;2.90;99.90;;;;;;4183175;28;20491;-74
2024/02/13 05:23:54;;;;;;;28.27;10.70;;;2.90;99.90;;;;;;4183225;28;20547;-74
2024/02/13 05:25:57;;;;;;;25.07;10.77;;;2.90;99.90;;;;;;4191754;28;20221;-74
2024/02/13 05:27:59;;;;;;;23.67;10.70;;;2.90;99.90;;;;;;4186092;28;20551;-74
2024/02/13 05:30:04;;;;;;;29.37;11.17;;;2.80;99.90;;;;;;4184845;28;20451;-74
2024/02/13 05:32:07;;;;;;;24.60;10.67;;;2.80;99.90;;;;;;4184818;28;20469;-74
2024/02/13 05:34:09;;;;;;;21.27;9.70;;;2.80;99.90;;;;;;4185073;28;20540;-74
2024/02/13 05:36:11;;;;;;;26.43;10.23;;;2.80;99.90;;;;;;4182211;28;20495;-75
2024/02/13 05:38:13;;;;;;;26.17;9.83;;;2.80;99.90;;;;;;4181019;28;20510;-74
2024/02/13 05:40:14;;;;;;;28.13;10.07;;;2.80;99.90;;;;;;4184208;28;21001;-74
2024/02/13 05:42:18;;;;;;;24.57;10.53;;;2.70;99.90;;;;;;4184829;28;20564;-74
2024/02/13 05:44:19;;;;;;;22.63;10.23;;;2.60;99.90;;;;;;4186320;28;20198;-74
2024/02/13 05:46:24;;;;;;;22.37;10.07;;;2.70;99.90;;;;;;4184814;28;20480;-74
2024/02/13 05:48:26;;;;;;;19.97;9.30;;;2.70;99.90;;;;;;4184011;28;20516;-75
2024/02/13 05:50:28;;;;;;;21.43;9.97;;;2.70;99.90;;;;;;4182618;28;20556;-74
2024/02/13 05:52:30;;;;;;;24.27;9.97;;;2.70;99.90;;;;;;4186027;28;20468;-74
2024/02/13 05:54:33;;;;;;;21.43;10.13;;;2.70;99.90;;;;;;4186447;28;20543;-74
2024/02/13 05:56:35;;;;;;;21.70;9.93;;;2.60;99.90;;;;;;4185099;28;20444;-74
2024/02/13 05:58:39;;;;;;;24.57;10.13;;;2.70;99.90;;;;;;4190194;28;20452;-75
2024/02/13 06:00:41;;;;;;;26.43;10.23;;;2.60;99.90;;;;;;4185243;28;20444;-74
2024/02/13 06:02:43;;;;;;;24.97;10.20;;;2.60;99.90;;;;;;4187634;28;20448;-74
2024/02/13 06:04:46;;;;;;;26.50;10.37;;;2.60;99.90;;;;;;4184190;28;20479;-74
2024/02/13 06:06:48;;;;;;;21.60;10.30;;;2.60;99.90;;;;;;4187588;28;20527;-74
2024/02/13 06:08:49;;;;;;;23.33;11.30;;;2.60;99.90;;;;;;4190567;28;20566;-74
2024/02/13 06:10:51;;;;;;;25.10;10.30;;;2.60;99.90;;;;;;4192227;28;20994;-75
2024/02/13 06:12:53;;;;;;;25.00;10.97;;;2.60;99.90;;;;;;4187604;28;20214;-74
2024/02/13 06:14:56;;;;;;;23.00;11.10;;;2.60;99.90;;;;;;4182306;28;20502;-74
2024/02/13 06:16:59;;;;;;;21.57;10.13;;;2.50;99.90;;;;;;4189852;28;20547;-74
2024/02/13 06:19:01;;;;;;;23.77;11.27;;;2.50;99.90;;;;;;4185567;28;20449;-74
2024/02/13 06:21:04;;;;;;;32.63;12.30;;;2.50;99.90;;;;;;4188524;28;20614;-72
2024/02/13 06:23:06;;;;;;;27.00;12.00;;;2.50;99.90;;;;;;4189422;28;20452;-74
2024/02/13 06:25:10;;;;;;;31.63;12.70;;;2.40;99.90;;;;;;4188256;28;20532;-74
2024/02/13 06:27:13;;;;;;;29.87;12.40;;;2.40;99.90;;;;;;4186933;28;20875;-74
2024/02/13 06:29:15;;;;;;;29.53;11.60;;;2.40;99.90;;;;;;4183976;28;20484;-74
2024/02/13 06:31:19;;;;;;;28.30;12.07;;;2.40;99.90;;;;;;4183070;28;20902;-74
2024/02/13 06:33:20;;;;;;;27.90;11.90;;;2.30;99.90;;;;;;4187747;28;20483;-75
2024/02/13 06:35:22;;;;;;;31.03;12.10;;;2.30;99.90;;;;;;4190481;28;20510;-74
2024/02/13 06:37:24;;;;;;;25.03;11.00;;;2.30;99.90;;;;;;4189906;28;20896;-78
2024/02/13 06:39:26;;;;;;;28.73;11.13;;;2.30;99.90;;;;;;4189730;28;21035;-78
2024/02/13 06:41:28;;;;;;;32.13;12.10;;;2.30;99.90;;;;;;4194901;28;20567;-77
2024/02/13 06:43:31;;;;;;;30.73;12.07;;;2.30;99.90;;;;;;4186083;28;20452;-77
2024/02/13 06:45:33;;;;;;;27.77;11.83;;;2.30;99.90;;;;;;4188964;28;20456;-78
2024/02/13 06:47:36;;;;;;;26.23;11.57;;;2.30;99.90;;;;;;4188032;28;21141;-75
2024/02/13 06:49:39;;;;;;;37.43;12.03;;;2.30;99.90;;;;;;4172887;28;20528;-75
2024/02/13 06:51:41;;;;;;;28.60;11.93;;;2.30;99.90;;;;;;4186851;28;20559;-73
2024/02/13 06:53:43;;;;;;;26.57;11.77;;;2.30;99.90;;;;;;4183869;28;20455;-73
2024/02/13 06:55:45;;;;;;;27.93;11.90;;;2.20;99.90;;;;;;4182907;28;20479;-73
2024/02/13 06:57:47;;;;;;;27.13;11.27;;;2.20;99.90;;;;;;4182421;28;20465;-74
2024/02/13 06:59:49;;;;;;;28.67;11.07;;;2.20;99.90;;;;;;4186560;28;20984;-74
2024/02/13 07:01:50;;;;;;;23.77;10.67;;;2.20;99.90;;;;;;4187479;28;20492;-74
2024/02/13 07:03:53;;;;;;;26.87;11.07;;;2.20;99.90;;;;;;4186526;28;20452;-73
2024/02/13 07:05:57;;;;;;;25.67;11.50;;;2.20;99.90;;;;;;4184257;28;20557;-73
2024/02/13 07:07:59;;;;;;;30.87;11.47;;;2.20;99.90;;;;;;4185445;28;20730;-73
2024/02/13 07:10:01;;;;;;;26.43;10.13;;;2.20;99.90;;;;;;4183158;28;20965;-74
2024/02/13 07:12:03;;;;;;;21.10;10.13;;;2.10;99.90;;;;;;4182193;28;20475;-74
2024/02/13 07:14:05;;;;;;;26.03;9.73;;;2.10;99.90;;;;;;4185274;28;20479;-74
2024/02/13 07:16:07;;;;;;;24.40;10.67;;;2.20;99.90;;;;;;4186241;28;20449;-73
2024/02/13 07:18:09;;;;;;;28.80;11.70;;;2.10;99.90;;;;;;4183792;28;20452;-73
2024/02/13 07:20:13;;;;;;;24.73;10.27;;;2.20;99.90;;;;;;4190067;28;20472;-73
2024/02/13 07:22:15;;;;;;;28.13;10.67;;;2.20;99.90;;;;;;4186829;28;20504;-73
2024/02/13 07:24:17;;;;;;;27.27;10.70;;;2.20;99.90;;;;;;4186921;28;20509;-72
2024/02/13 07:26:21;;;;;;;24.93;10.97;;;2.20;99.90;;;;;;4186296;28;20499;-72
2024/02/13 07:28:23;;;;;;;23.63;11.30;;;2.20;99.90;;;;;;4182729;28;20457;-73
2024/02/13 07:30:25;;;;;;;24.90;10.43;;;2.20;99.90;;;;;;4186437;28;20471;-72
2024/02/13 07:32:27;;;;;;;25.47;11.27;;;2.20;99.90;;;;;;4184383;28;20460;-73
2024/02/13 07:34:28;;;;;;;28.80;11.43;;;2.20;99.90;;;;;;4183406;28;20828;-72
2024/02/13 07:36:31;;;;;;;27.80;11.17;;;2.30;99.90;;;;;;4186392;28;20516;-72
2024/02/13 07:38:33;;;;;;;21.00;10.60;;;2.30;99.90;;;;;;4185863;28;20748;-72
2024/02/13 07:40:35;;;;;;;24.13;10.77;;;2.30;99.90;;;;;;4189353;28;20538;-73
2024/02/13 07:42:37;;;;;;;24.20;10.07;;;2.30;99.90;;;;;;4189308;28;20492;-72
2024/02/13 07:44:39;;;;;;;27.53;11.27;;;2.30;99.90;;;;;;4186281;28;20470;-72
2024/02/13 07:46:41;;;;;;;22.23;10.53;;;2.40;99.90;;;;;;4188534;28;20456;-72
2024/02/13 07:48:43;;;;;;;25.07;11.43;;;2.40;99.90;;;;;;4189861;28;20523;-72
2024/02/13 07:50:45;;;;;;;27.93;11.27;;;2.50;99.90;;;;;;4186868;28;20441;-72
2024/02/13 07:52:48;;;;;;;25.43;10.77;;;2.50;99.90;;;;;;4186747;28;20440;-72
2024/02/13 07:54:50;;;;;;;26.17;10.67;;;2.50;99.90;;;;;;4188632;28;20993;-72
2024/02/13 07:56:53;;;;;;;34.87;10.77;;;2.60;99.90;;;;;;4186755;28;20468;-72
2024/02/13 07:58:56;;;;;;;26.50;10.83;;;2.60;99.90;;;;;;4190346;28;20892;-72
2024/02/13 08:00:58;;;;;;;21.93;10.40;;;2.60;99.90;;;;;;4187053;28;20486;-73
2024/02/13 08:03:01;;;;;;;28.57;10.60;;;2.70;99.90;;;;;;4184561;28;21158;-72
2024/02/13 08:05:04;;;;;;;22.77;10.10;;;2.70;99.90;;;;;;4182686;28;20896;-72
2024/02/13 08:07:07;;;;;;;24.10;11.07;;;2.80;99.90;;;;;;4186109;28;20510;-72
2024/02/13 08:09:13;;;;;;;28.83;10.73;;;2.80;99.90;;;;;;4184958;28;20523;-72
2024/02/13 08:11:16;;;;;;;24.23;10.67;;;2.90;99.90;;;;;;4188173;28;20492;-72
2024/02/13 08:13:18;;;;;;;26.67;10.40;;;2.90;99.90;;;;;;4183355;28;20445;-72
2024/02/13 08:15:20;;;;;;;26.30;10.83;;;2.90;99.90;;;;;;4185655;28;20449;-72
2024/02/13 08:17:22;;;;;;;20.77;10.43;;;2.90;99.90;;;;;;4183729;28;20507;-72
2024/02/13 08:19:24;;;;;;;20.00;10.10;;;3.00;99.90;;;;;;4187251;28;20455;-72
2024/02/13 08:21:26;;;;;;;22.43;10.07;;;3.00;99.90;;;;;;4201053;28;20525;-74
2024/02/13 08:23:28;;;;;;;24.10;10.40;;;3.00;99.90;;;;;;4186033;28;20441;-72
2024/02/13 08:25:32;;;;;;;21.90;9.57;;;3.10;99.90;;;;;;4184423;28;20472;-72
2024/02/13 08:27:35;;;;;;;23.80;9.83;;;3.10;99.90;;;;;;4181914;28;20563;-73
2024/02/13 08:29:37;;;;;;;24.87;9.97;;;3.10;99.90;;;;;;4186420;28;20512;-73
2024/02/13 08:31:44;;;;;;;30.27;9.90;;;3.20;99.90;;;;;;4182850;28;20502;-73
2024/02/13 08:33:48;;;;;;;27.57;9.40;;;3.20;99.90;;;;;;4185336;28;20932;-73
2024/02/13 08:35:52;;;;;;;23.37;10.10;;;3.30;99.90;;;;;;4182352;28;20496;-73
2024/02/13 08:37:54;;;;;;;22.40;9.93;;;3.40;99.90;;;;;;4185157;28;20516;-72
2024/02/13 08:39:57;;;;;;;20.37;9.50;;;3.40;99.90;;;;;;4185879;28;20440;-73
2024/02/13 08:42:01;;;;;;;21.77;9.23;;;3.40;99.90;;;;;;4184537;28;20535;-72
2024/02/13 08:44:03;;;;;;;19.27;9.67;;;3.40;99.90;;;;;;4185788;28;20447;-73
2024/02/13 08:46:05;;;;;;;21.67;10.13;;;3.40;99.90;;;;;;4186514;28;20923;-74
2024/02/13 08:48:08;;;;;;;23.43;9.53;;;3.40;99.90;;;;;;4185582;28;20981;-74
2024/02/13 08:50:12;;;;;;;23.80;9.83;;;3.50;99.90;;;;;;4186544;28;21182;-74
2024/02/13 08:52:13;;;;;;;21.67;10.03;;;3.50;99.90;;;;;;4189635;28;20465;-74
2024/02/13 08:54:15;;;;;;;24.87;9.27;;;3.50;99.90;;;;;;4187956;28;20444;-75
2024/02/13 08:56:16;;;;;;;26.33;9.30;;;3.60;99.90;;;;;;4184277;28;20218;-75
2024/02/13 08:58:19;;;;;;;22.00;9.00;;;3.60;99.90;;;;;;4185129;28;20458;-75
2024/02/13 09:00:21;;;;;;;21.07;9.23;;;3.70;99.90;;;;;;4182250;28;20199;-74
2024/02/13 09:02:23;;;;;;;21.13;9.50;;;3.80;99.90;;;;;;4187151;28;20509;-74
2024/02/13 09:04:25;;;;;;;20.57;9.47;;;3.80;99.90;;;;;;4187655;28;20463;-74
2024/02/13 09:06:27;;;;;;;24.20;10.43;;;3.90;99.90;;;;;;4185771;28;20454;-74
2024/02/13 09:08:29;;;;;;;21.57;9.67;;;3.90;99.90;;;;;;4185777;28;20897;-74
2024/02/13 09:10:31;;;;;;;29.63;9.37;;;4.00;99.90;;;;;;4183458;28;20493;-74
2024/02/13 09:12:33;;;;;;;24.23;9.87;;;4.00;99.90;;;;;;4185816;28;20526;-74
2024/02/13 09:14:36;;;;;;;18.10;8.73;;;4.00;99.90;;;;;;4183387;28;20532;-74
2024/02/13 09:16:40;;;;;;;21.20;9.57;;;4.10;99.90;;;;;;4187574;28;20478;-74
2024/02/13 09:18:43;;;;;;;22.83;9.53;;;4.10;99.90;;;;;;4183245;28;20506;-74
2024/02/13 09:20:45;;;;;;;21.10;9.23;;;4.10;99.90;;;;;;4180964;28;20522;-75
2024/02/13 09:22:47;;;;;;;20.30;9.37;;;4.20;99.90;;;;;;4187088;28;20516;-75
2024/02/13 09:24:50;;;;;;;25.50;10.00;;;4.30;99.90;;;;;;4184073;28;20446;-75
2024/02/13 09:26:52;;;;;;;19.67;9.37;;;4.30;99.90;;;;;;4182491;28;20899;-75
2024/02/13 09:28:54;;;;;;;28.10;9.73;;;4.40;99.90;;;;;;4181699;28;20534;-75
2024/02/13 09:30:58;;;;;;;23.50;10.67;;;4.40;99.90;;;;;;4185317;28;20486;-75
2024/02/13 09:33:00;;;;;;;22.00;10.17;;;4.50;99.90;;;;;;4180396;28;20451;-75
2024/02/13 09:35:03;;;;;;;21.93;10.60;;;4.60;99.90;;;;;;4184826;28;20504;-75
2024/02/13 09:37:09;;;;;;;21.17;9.83;;;4.60;99.90;;;;;;4183835;28;20878;-75
2024/02/13 09:39:12;;;;;;;20.43;10.27;;;4.60;99.90;;;;;;4181439;28;20458;-74
2024/02/13 09:41:14;;;;;;;20.20;9.37;;;4.70;99.90;;;;;;4183058;28;20862;-75
2024/02/13 09:43:17;;;;;;;19.50;9.37;;;4.80;99.90;;;;;;4183863;28;20448;-75
2024/02/13 09:45:21;;;;;;;22.47;8.93;;;4.80;99.90;;;;;;4187210;28;21022;-75
2024/02/13 09:47:26;;;;;;;18.77;9.10;;;4.80;99.90;;;;;;4186533;28;20474;-74
2024/02/13 09:49:32;;;;;;;18.80;9.13;;;4.90;99.90;;;;;;4182155;28;20511;-74
2024/02/13 09:51:34;;;;;;;18.33;8.60;;;4.90;99.90;;;;;;4189011;28;20477;-73
2024/02/13 09:53:40;;;;;;;17.53;9.07;;;4.90;99.90;;;;;;4182818;28;20547;-74
2024/02/13 09:55:42;;;;;;;19.27;9.97;;;5.00;99.90;;;;;;4184725;28;20470;-74
2024/02/13 09:57:45;;;;;;;20.53;9.57;;;5.00;99.90;;;;;;4185458;28;20472;-74
2024/02/13 09:59:47;;;;;;;19.80;9.93;;;5.00;99.90;;;;;;4182181;28;20501;-74
2024/02/13 10:01:49;;;;;;;23.03;10.37;;;5.10;99.90;;;;;;4182098;28;20498;-74
2024/02/13 10:03:52;;;;;;;22.27;10.70;;;5.10;99.90;;;;;;4190697;28;20840;-74
2024/02/13 10:05:57;;;;;;;23.57;10.60;;;5.10;99.90;;;;;;4182168;28;20458;-74
2024/02/13 10:08:01;;;;;;;23.17;10.50;;;5.20;99.90;;;;;;4182323;28;20505;-74
2024/02/13 10:10:04;;;;;;;21.47;10.40;;;5.30;99.90;;;;;;4184094;28;20549;-74
2024/02/13 10:12:10;;;;;;;21.60;10.47;;;5.30;99.90;;;;;;4182872;28;20475;-74
2024/02/13 10:14:21;;;;;;;24.50;10.60;;;5.40;99.90;;;;;;4181298;28;20463;-75
2024/02/13 10:16:25;;;;;;;26.73;11.10;;;5.50;99.90;;;;;;4183692;28;20463;-75
2024/02/13 10:18:28;;;;;;;23.60;11.50;;;5.50;99.90;;;;;;4183202;28;20447;-75
2024/02/13 10:20:32;;;;;;;27.43;10.90;;;5.60;99.90;;;;;;4184982;28;20479;-75
2024/02/13 10:22:35;;;;;;;24.30;10.90;;;5.60;99.90;;;;;;4184213;28;20479;-75
2024/02/13 10:24:37;;;;;;;24.60;11.30;;;5.70;99.90;;;;;;4185549;28;20463;-75
2024/02/13 10:26:39;;;;;;;20.27;10.60;;;5.80;99.90;;;;;;4181993;28;20476;-75
2024/02/13 10:28:43;;;;;;;19.47;10.23;;;6.00;99.90;;;;;;4186214;28;20452;-76
2024/02/13 10:30:50;;;;;;;19.07;10.77;;;6.10;99.90;;;;;;4184327;28;20591;-77
2024/02/13 10:32:52;;;;;;;21.40;9.47;;;6.20;99.90;;;;;;4184448;28;20207;-76
2024/02/13 10:34:54;;;;;;;19.97;10.37;;;6.30;99.90;;;;;;4187544;28;20556;-76